sensor_id;sensor_type;location;lat;lon;timestamp;P1;durP1;ratioP1;P2;durP2;ratioP2
8632;SDS011;4354;49.832;10.746;2024-02-15T00:01:07;5.83;;;5.30;;
8632;SDS011;4354;49.832;10.746;2024-02-15T00:03:34;6.97;;;5.73;;
8632;SDS011;4354;49.832;10.746;2024-02-15T00:06:02;7.30;;;5.80;;
8632;SDS011;4354;49.832;10.746;2024-02-15T00:08:29;6.47;;;5.30;;
8632;SDS011;4354;49.832;10.746;2024-02-15T00:10:56;7.60;;;5.50;;
8632;SDS011;4354;49.832;10.746;2024-02-15T00:13:23;6.60;;;5.47;;
8632;SDS011;4354;49.832;10.746;2024-02-15T00:15:50;6.33;;;5.70;;
8632;SDS011;4354;49.832;10.746;2024-02-15T00:18:16;7.00;;;5.60;;
8632;SDS011;4354;49.832;10.746;2024-02-15T00:20:44;5.70;;;4.90;;
8632;SDS011;4354;49.832;10.746;2024-02-15T00:23:11;6.33;;;5.50;;
8632;SDS011;4354;49.832;10.746;2024-02-15T00:25:38;5.63;;;5.13;;
8632;SDS011;4354;49.832;10.746;2024-02-15T00:28:06;6.30;;;5.67;;
8632;SDS011;4354;49.832;10.746;2024-02-15T00:30:33;7.23;;;5.73;;
8632;SDS011;4354;49.832;10.746;2024-02-15T00:33:00;11.93;;;7.77;;
8632;SDS011;4354;49.832;10.746;2024-02-15T00:35:29;8.43;;;6.57;;
8632;SDS011;4354;49.832;10.746;2024-02-15T00:37:56;8.77;;;7.30;;
8632;SDS011;4354;49.832;10.746;2024-02-15T00:40:24;7.63;;;6.63;;
8632;SDS011;4354;49.832;10.746;2024-02-15T00:42:50;7.50;;;6.70;;
8632;SDS011;4354;49.832;10.746;2024-02-15T00:45:17;8.37;;;7.10;;
8632;SDS011;4354;49.832;10.746;2024-02-15T00:47:44;7.20;;;6.47;;
8632;SDS011;4354;49.832;10.746;2024-02-15T00:50:12;6.80;;;6.20;;
8632;SDS011;4354;49.832;10.746;2024-02-15T00:52:39;8.03;;;6.83;;
8632;SDS011;4354;49.832;10.746;2024-02-15T00:55:06;7.07;;;6.27;;
8632;SDS011;4354;49.832;10.746;2024-02-15T00:57:33;8.33;;;6.60;;
8632;SDS011;4354;49.832;10.746;2024-02-15T01:00:00;7.60;;;6.77;;
8632;SDS011;4354;49.832;10.746;2024-02-15T01:02:29;8.10;;;6.80;;
8632;SDS011;4354;49.832;10.746;2024-02-15T01:04:57;8.27;;;7.47;;
8632;SDS011;4354;49.832;10.746;2024-02-15T01:07:25;8.47;;;7.63;;
8632;SDS011;4354;49.832;10.746;2024-02-15T01:09:54;7.50;;;6.57;;
8632;SDS011;4354;49.832;10.746;2024-02-15T01:12:21;9.47;;;7.53;;
8632;SDS011;4354;49.832;10.746;2024-02-15T01:14:47;9.37;;;7.37;;
8632;SDS011;4354;49.832;10.746;2024-02-15T01:17:14;9.93;;;7.67;;
8632;SDS011;4354;49.832;10.746;2024-02-15T01:19:42;14.47;;;8.20;;
8632;SDS011;4354;49.832;10.746;2024-02-15T01:22:08;9.50;;;7.47;;
8632;SDS011;4354;49.832;10.746;2024-02-15T01:24:35;8.77;;;7.67;;
8632;SDS011;4354;49.832;10.746;2024-02-15T01:27:02;9.83;;;8.27;;
8632;SDS011;4354;49.832;10.746;2024-02-15T01:29:29;11.90;;;9.60;;
8632;SDS011;4354;49.832;10.746;2024-02-15T01:31:56;11.80;;;9.67;;
8632;SDS011;4354;49.832;10.746;2024-02-15T01:34:23;14.73;;;10.80;;
8632;SDS011;4354;49.832;10.746;2024-02-15T01:36:50;13.57;;;11.53;;
8632;SDS011;4354;49.832;10.746;2024-02-15T01:39:16;12.50;;;9.67;;
8632;SDS011;4354;49.832;10.746;2024-02-15T01:41:47;10.27;;;9.13;;
8632;SDS011;4354;49.832;10.746;2024-02-15T01:44:18;11.97;;;9.10;;
8632;SDS011;4354;49.832;10.746;2024-02-15T01:46:46;12.20;;;9.33;;
8632;SDS011;4354;49.832;10.746;2024-02-15T01:49:15;10.93;;;9.40;;
8632;SDS011;4354;49.832;10.746;2024-02-15T01:51:42;8.70;;;7.40;;
8632;SDS011;4354;49.832;10.746;2024-02-15T01:54:11;9.60;;;7.97;;
8632;SDS011;4354;49.832;10.746;2024-02-15T01:56:39;8.43;;;7.60;;
8632;SDS011;4354;49.832;10.746;2024-02-15T01:59:06;10.30;;;9.30;;
8632;SDS011;4354;49.832;10.746;2024-02-15T02:01:33;9.47;;;8.43;;
8632;SDS011;4354;49.832;10.746;2024-02-15T02:04:00;8.87;;;7.90;;
8632;SDS011;4354;49.832;10.746;2024-02-15T02:06:26;12.03;;;10.27;;
8632;SDS011;4354;49.832;10.746;2024-02-15T02:08:54;9.97;;;8.97;;
8632;SDS011;4354;49.832;10.746;2024-02-15T02:11:22;10.23;;;8.83;;
8632;SDS011;4354;49.832;10.746;2024-02-15T02:13:50;9.90;;;8.90;;
8632;SDS011;4354;49.832;10.746;2024-02-15T02:16:24;9.00;;;8.13;;
8632;SDS011;4354;49.832;10.746;2024-02-15T02:18:55;12.33;;;9.20;;
8632;SDS011;4354;49.832;10.746;2024-02-15T02:21:28;9.83;;;8.80;;
8632;SDS011;4354;49.832;10.746;2024-02-15T02:23:56;9.87;;;8.40;;
8632;SDS011;4354;49.832;10.746;2024-02-15T02:26:24;8.93;;;7.87;;
8632;SDS011;4354;49.832;10.746;2024-02-15T02:28:51;9.37;;;8.37;;
8632;SDS011;4354;49.832;10.746;2024-02-15T02:31:21;9.57;;;8.60;;
8632;SDS011;4354;49.832;10.746;2024-02-15T02:33:52;9.60;;;8.67;;
8632;SDS011;4354;49.832;10.746;2024-02-15T02:36:20;10.17;;;8.27;;
8632;SDS011;4354;49.832;10.746;2024-02-15T02:38:47;10.20;;;8.50;;
8632;SDS011;4354;49.832;10.746;2024-02-15T02:41:16;10.13;;;9.13;;
8632;SDS011;4354;49.832;10.746;2024-02-15T02:43:45;9.80;;;8.57;;
8632;SDS011;4354;49.832;10.746;2024-02-15T02:46:12;9.37;;;8.40;;
8632;SDS011;4354;49.832;10.746;2024-02-15T02:48:39;9.57;;;8.00;;
8632;SDS011;4354;49.832;10.746;2024-02-15T02:51:07;9.60;;;8.43;;
8632;SDS011;4354;49.832;10.746;2024-02-15T02:53:34;10.73;;;9.23;;
8632;SDS011;4354;49.832;10.746;2024-02-15T02:56:02;9.97;;;8.77;;
8632;SDS011;4354;49.832;10.746;2024-02-15T02:58:30;9.47;;;8.47;;
8632;SDS011;4354;49.832;10.746;2024-02-15T03:00:57;9.63;;;8.73;;
8632;SDS011;4354;49.832;10.746;2024-02-15T03:03:26;10.30;;;9.30;;
8632;SDS011;4354;49.832;10.746;2024-02-15T03:05:53;9.43;;;8.27;;
8632;SDS011;4354;49.832;10.746;2024-02-15T03:08:21;9.60;;;8.60;;
8632;SDS011;4354;49.832;10.746;2024-02-15T03:10:48;12.17;;;10.63;;
8632;SDS011;4354;49.832;10.746;2024-02-15T03:13:15;10.53;;;9.43;;
8632;SDS011;4354;49.832;10.746;2024-02-15T03:15:45;11.37;;;9.77;;
8632;SDS011;4354;49.832;10.746;2024-02-15T03:18:15;10.77;;;9.67;;
8632;SDS011;4354;49.832;10.746;2024-02-15T03:20:43;13.80;;;10.20;;
8632;SDS011;4354;49.832;10.746;2024-02-15T03:23:11;16.67;;;13.10;;
8632;SDS011;4354;49.832;10.746;2024-02-15T03:25:38;13.83;;;11.30;;
8632;SDS011;4354;49.832;10.746;2024-02-15T03:28:05;13.13;;;10.73;;
8632;SDS011;4354;49.832;10.746;2024-02-15T03:30:32;14.07;;;10.47;;
8632;SDS011;4354;49.832;10.746;2024-02-15T03:33:02;10.17;;;9.13;;
8632;SDS011;4354;49.832;10.746;2024-02-15T03:35:33;9.77;;;8.77;;
8632;SDS011;4354;49.832;10.746;2024-02-15T03:38:01;11.63;;;9.30;;
8632;SDS011;4354;49.832;10.746;2024-02-15T03:40:28;10.60;;;9.50;;
8632;SDS011;4354;49.832;10.746;2024-02-15T03:42:56;9.43;;;7.93;;
8632;SDS011;4354;49.832;10.746;2024-02-15T03:45:23;8.77;;;7.87;;
8632;SDS011;4354;49.832;10.746;2024-02-15T03:47:53;8.50;;;7.70;;
8632;SDS011;4354;49.832;10.746;2024-02-15T03:50:21;9.73;;;8.20;;
8632;SDS011;4354;49.832;10.746;2024-02-15T03:52:48;8.97;;;8.07;;
8632;SDS011;4354;49.832;10.746;2024-02-15T03:55:16;13.57;;;10.17;;
8632;SDS011;4354;49.832;10.746;2024-02-15T03:57:43;10.90;;;9.07;;
8632;SDS011;4354;49.832;10.746;2024-02-15T04:00:11;13.67;;;9.50;;
8632;SDS011;4354;49.832;10.746;2024-02-15T04:02:41;9.57;;;8.60;;
8632;SDS011;4354;49.832;10.746;2024-02-15T04:05:09;12.27;;;8.80;;
8632;SDS011;4354;49.832;10.746;2024-02-15T04:07:37;12.70;;;9.90;;
8632;SDS011;4354;49.832;10.746;2024-02-15T04:10:04;15.17;;;10.97;;
8632;SDS011;4354;49.832;10.746;2024-02-15T04:12:32;12.83;;;9.63;;
8632;SDS011;4354;49.832;10.746;2024-02-15T04:14:59;14.73;;;10.20;;
8632;SDS011;4354;49.832;10.746;2024-02-15T04:17:32;15.60;;;12.53;;
8632;SDS011;4354;49.832;10.746;2024-02-15T04:20:02;17.07;;;12.63;;
8632;SDS011;4354;49.832;10.746;2024-02-15T04:22:30;14.03;;;11.00;;
8632;SDS011;4354;49.832;10.746;2024-02-15T04:25:04;15.10;;;10.20;;
8632;SDS011;4354;49.832;10.746;2024-02-15T04:27:32;12.30;;;9.77;;
8632;SDS011;4354;49.832;10.746;2024-02-15T04:30:00;13.80;;;10.60;;
8632;SDS011;4354;49.832;10.746;2024-02-15T04:32:29;13.60;;;8.80;;
8632;SDS011;4354;49.832;10.746;2024-02-15T04:35:00;11.87;;;9.10;;
8632;SDS011;4354;49.832;10.746;2024-02-15T04:37:28;10.90;;;8.13;;
8632;SDS011;4354;49.832;10.746;2024-02-15T04:39:56;10.63;;;8.20;;
8632;SDS011;4354;49.832;10.746;2024-02-15T04:42:23;12.20;;;8.63;;
8632;SDS011;4354;49.832;10.746;2024-02-15T04:44:52;9.97;;;7.90;;
8632;SDS011;4354;49.832;10.746;2024-02-15T04:47:20;9.73;;;8.47;;
8632;SDS011;4354;49.832;10.746;2024-02-15T04:49:47;10.43;;;8.43;;
8632;SDS011;4354;49.832;10.746;2024-02-15T04:52:14;11.27;;;8.37;;
8632;SDS011;4354;49.832;10.746;2024-02-15T04:54:41;9.27;;;7.73;;
8632;SDS011;4354;49.832;10.746;2024-02-15T04:57:07;9.83;;;8.50;;
8632;SDS011;4354;49.832;10.746;2024-02-15T04:59:38;12.73;;;8.50;;
8632;SDS011;4354;49.832;10.746;2024-02-15T05:02:05;9.80;;;8.80;;
8632;SDS011;4354;49.832;10.746;2024-02-15T05:04:35;8.17;;;7.03;;
8632;SDS011;4354;49.832;10.746;2024-02-15T05:07:02;9.10;;;8.13;;
8632;SDS011;4354;49.832;10.746;2024-02-15T05:09:30;10.53;;;8.40;;
8632;SDS011;4354;49.832;10.746;2024-02-15T05:11:59;8.70;;;7.70;;
8632;SDS011;4354;49.832;10.746;2024-02-15T05:14:26;9.17;;;8.17;;
8632;SDS011;4354;49.832;10.746;2024-02-15T05:16:53;9.60;;;7.67;;
8632;SDS011;4354;49.832;10.746;2024-02-15T05:19:19;9.77;;;8.77;;
8632;SDS011;4354;49.832;10.746;2024-02-15T05:21:46;10.47;;;8.57;;
8632;SDS011;4354;49.832;10.746;2024-02-15T05:24:14;16.03;;;11.10;;
8632;SDS011;4354;49.832;10.746;2024-02-15T05:26:45;21.13;;;14.43;;
8632;SDS011;4354;49.832;10.746;2024-02-15T05:29:16;18.77;;;14.37;;
8632;SDS011;4354;49.832;10.746;2024-02-15T05:31:43;19.17;;;14.27;;
8632;SDS011;4354;49.832;10.746;2024-02-15T05:34:11;14.13;;;12.03;;
8632;SDS011;4354;49.832;10.746;2024-02-15T05:36:38;16.00;;;12.67;;
8632;SDS011;4354;49.832;10.746;2024-02-15T05:39:06;17.50;;;13.70;;
8632;SDS011;4354;49.832;10.746;2024-02-15T05:41:33;16.97;;;14.13;;
8632;SDS011;4354;49.832;10.746;2024-02-15T05:44:01;23.47;;;16.03;;
8632;SDS011;4354;49.832;10.746;2024-02-15T05:46:32;19.80;;;14.77;;
8632;SDS011;4354;49.832;10.746;2024-02-15T05:49:03;18.57;;;15.17;;
8632;SDS011;4354;49.832;10.746;2024-02-15T05:51:31;17.83;;;14.77;;
8632;SDS011;4354;49.832;10.746;2024-02-15T05:54:00;25.23;;;17.87;;
8632;SDS011;4354;49.832;10.746;2024-02-15T05:56:27;21.33;;;15.43;;
8632;SDS011;4354;49.832;10.746;2024-02-15T05:58:55;16.83;;;14.03;;
8632;SDS011;4354;49.832;10.746;2024-02-15T06:01:23;22.97;;;15.87;;
8632;SDS011;4354;49.832;10.746;2024-02-15T06:03:50;17.13;;;14.43;;
8632;SDS011;4354;49.832;10.746;2024-02-15T06:06:21;17.93;;;14.87;;
8632;SDS011;4354;49.832;10.746;2024-02-15T06:08:49;20.13;;;15.27;;
8632;SDS011;4354;49.832;10.746;2024-02-15T06:11:18;20.00;;;15.63;;
8632;SDS011;4354;49.832;10.746;2024-02-15T06:13:48;18.20;;;15.20;;
8632;SDS011;4354;49.832;10.746;2024-02-15T06:16:15;19.00;;;15.63;;
8632;SDS011;4354;49.832;10.746;2024-02-15T06:18:42;22.67;;;14.37;;
8632;SDS011;4354;49.832;10.746;2024-02-15T06:21:09;16.33;;;13.67;;
8632;SDS011;4354;49.832;10.746;2024-02-15T06:23:36;20.40;;;16.47;;
8632;SDS011;4354;49.832;10.746;2024-02-15T06:26:03;19.50;;;14.87;;
8632;SDS011;4354;49.832;10.746;2024-02-15T06:28:30;23.10;;;17.10;;
8632;SDS011;4354;49.832;10.746;2024-02-15T06:31:15;26.47;;;16.73;;
8632;SDS011;4354;49.832;10.746;2024-02-15T06:34:01;22.83;;;16.37;;
8632;SDS011;4354;49.832;10.746;2024-02-15T06:36:47;23.07;;;16.37;;
8632;SDS011;4354;49.832;10.746;2024-02-15T06:39:34;19.53;;;15.43;;
8632;SDS011;4354;49.832;10.746;2024-02-15T06:42:04;24.17;;;16.10;;
8632;SDS011;4354;49.832;10.746;2024-02-15T06:44:33;19.83;;;15.43;;
8632;SDS011;4354;49.832;10.746;2024-02-15T06:47:00;22.80;;;15.67;;
8632;SDS011;4354;49.832;10.746;2024-02-15T06:49:27;20.17;;;14.33;;
8632;SDS011;4354;49.832;10.746;2024-02-15T06:51:53;20.37;;;15.63;;
8632;SDS011;4354;49.832;10.746;2024-02-15T06:54:20;21.37;;;17.50;;
8632;SDS011;4354;49.832;10.746;2024-02-15T06:56:49;23.87;;;17.83;;
8632;SDS011;4354;49.832;10.746;2024-02-15T06:59:18;28.00;;;20.13;;
8632;SDS011;4354;49.832;10.746;2024-02-15T07:01:45;27.87;;;20.83;;
8632;SDS011;4354;49.832;10.746;2024-02-15T07:04:12;22.10;;;17.23;;
8632;SDS011;4354;49.832;10.746;2024-02-15T07:06:39;19.70;;;16.37;;
8632;SDS011;4354;49.832;10.746;2024-02-15T07:09:06;22.23;;;18.03;;
8632;SDS011;4354;49.832;10.746;2024-02-15T07:11:33;20.43;;;18.23;;
8632;SDS011;4354;49.832;10.746;2024-02-15T07:14:03;25.87;;;19.00;;
8632;SDS011;4354;49.832;10.746;2024-02-15T07:16:32;25.57;;;19.00;;
8632;SDS011;4354;49.832;10.746;2024-02-15T07:19:00;20.27;;;16.60;;
8632;SDS011;4354;49.832;10.746;2024-02-15T07:21:27;21.97;;;16.13;;
8632;SDS011;4354;49.832;10.746;2024-02-15T07:23:55;21.40;;;15.97;;
8632;SDS011;4354;49.832;10.746;2024-02-15T07:26:25;19.90;;;16.27;;
8632;SDS011;4354;49.832;10.746;2024-02-15T07:28:55;21.03;;;15.43;;
8632;SDS011;4354;49.832;10.746;2024-02-15T07:31:27;20.33;;;14.87;;
8632;SDS011;4354;49.832;10.746;2024-02-15T07:33:55;14.13;;;12.63;;
8632;SDS011;4354;49.832;10.746;2024-02-15T07:36:22;14.63;;;12.83;;
8632;SDS011;4354;49.832;10.746;2024-02-15T07:38:50;18.53;;;13.17;;
8632;SDS011;4354;49.832;10.746;2024-02-15T07:41:17;15.43;;;12.30;;
8632;SDS011;4354;49.832;10.746;2024-02-15T07:43:46;16.07;;;12.50;;
8632;SDS011;4354;49.832;10.746;2024-02-15T07:46:13;14.47;;;12.90;;
8632;SDS011;4354;49.832;10.746;2024-02-15T07:48:42;14.93;;;11.53;;
8632;SDS011;4354;49.832;10.746;2024-02-15T07:51:16;13.30;;;10.93;;
8632;SDS011;4354;49.832;10.746;2024-02-15T07:53:45;11.67;;;10.47;;
8632;SDS011;4354;49.832;10.746;2024-02-15T07:56:12;14.20;;;10.60;;
8632;SDS011;4354;49.832;10.746;2024-02-15T07:58:40;14.30;;;11.10;;
8632;SDS011;4354;49.832;10.746;2024-02-15T08:01:18;10.90;;;9.80;;
8632;SDS011;4354;49.832;10.746;2024-02-15T08:03:51;11.07;;;9.97;;
8632;SDS011;4354;49.832;10.746;2024-02-15T08:06:21;12.87;;;10.80;;
8632;SDS011;4354;49.832;10.746;2024-02-15T08:08:50;12.50;;;9.50;;
8632;SDS011;4354;49.832;10.746;2024-02-15T08:11:18;10.53;;;8.97;;
8632;SDS011;4354;49.832;10.746;2024-02-15T08:13:45;10.30;;;9.23;;
8632;SDS011;4354;49.832;10.746;2024-02-15T08:16:17;9.67;;;8.30;;
8632;SDS011;4354;49.832;10.746;2024-02-15T08:18:45;8.67;;;7.80;;
8632;SDS011;4354;49.832;10.746;2024-02-15T08:21:13;10.73;;;7.90;;
8632;SDS011;4354;49.832;10.746;2024-02-15T08:23:41;8.33;;;6.80;;
8632;SDS011;4354;49.832;10.746;2024-02-15T08:26:08;11.10;;;6.80;;
8632;SDS011;4354;49.832;10.746;2024-02-15T08:28:37;7.13;;;6.53;;
8632;SDS011;4354;49.832;10.746;2024-02-15T08:31:04;7.10;;;6.40;;
8632;SDS011;4354;49.832;10.746;2024-02-15T08:33:31;9.23;;;7.33;;
8632;SDS011;4354;49.832;10.746;2024-02-15T08:35:58;8.80;;;6.67;;
8632;SDS011;4354;49.832;10.746;2024-02-15T08:38:28;8.07;;;7.13;;
8632;SDS011;4354;49.832;10.746;2024-02-15T08:40:55;9.03;;;7.67;;
8632;SDS011;4354;49.832;10.746;2024-02-15T08:43:22;8.73;;;7.07;;
8632;SDS011;4354;49.832;10.746;2024-02-15T08:45:49;7.93;;;6.17;;
8632;SDS011;4354;49.832;10.746;2024-02-15T08:48:17;7.73;;;6.27;;
8632;SDS011;4354;49.832;10.746;2024-02-15T08:50:44;5.97;;;5.40;;
8632;SDS011;4354;49.832;10.746;2024-02-15T08:53:12;7.80;;;6.17;;
8632;SDS011;4354;49.832;10.746;2024-02-15T08:55:41;7.90;;;5.67;;
8632;SDS011;4354;49.832;10.746;2024-02-15T08:58:08;6.40;;;5.23;;
8632;SDS011;4354;49.832;10.746;2024-02-15T09:00:36;7.87;;;5.37;;
8632;SDS011;4354;49.832;10.746;2024-02-15T09:03:07;6.70;;;5.20;;
8632;SDS011;4354;49.832;10.746;2024-02-15T09:05:34;6.07;;;4.68;;
8632;SDS011;4354;49.832;10.746;2024-02-15T09:08:01;6.30;;;5.50;;
8632;SDS011;4354;49.832;10.746;2024-02-15T09:10:30;7.03;;;5.37;;
8632;SDS011;4354;49.832;10.746;2024-02-15T09:12:57;6.60;;;5.33;;
8632;SDS011;4354;49.832;10.746;2024-02-15T09:15:24;5.80;;;5.20;;
8632;SDS011;4354;49.832;10.746;2024-02-15T09:17:51;7.90;;;5.10;;
8632;SDS011;4354;49.832;10.746;2024-02-15T09:20:21;6.15;;;5.03;;
8632;SDS011;4354;49.832;10.746;2024-02-15T09:22:48;5.93;;;5.07;;
8632;SDS011;4354;49.832;10.746;2024-02-15T09:25:16;7.70;;;5.47;;
8632;SDS011;4354;49.832;10.746;2024-02-15T09:27:44;5.83;;;5.23;;
8632;SDS011;4354;49.832;10.746;2024-02-15T09:30:12;5.40;;;4.90;;
8632;SDS011;4354;49.832;10.746;2024-02-15T09:32:39;8.55;;;5.18;;
8632;SDS011;4354;49.832;10.746;2024-02-15T09:35:06;5.30;;;4.80;;
8632;SDS011;4354;49.832;10.746;2024-02-15T09:37:35;6.72;;;5.30;;
8632;SDS011;4354;49.832;10.746;2024-02-15T09:40:08;8.73;;;5.57;;
8632;SDS011;4354;49.832;10.746;2024-02-15T09:42:37;5.80;;;4.90;;
8632;SDS011;4354;49.832;10.746;2024-02-15T09:45:06;5.15;;;4.65;;
8632;SDS011;4354;49.832;10.746;2024-02-15T09:47:37;6.07;;;4.90;;
8632;SDS011;4354;49.832;10.746;2024-02-15T09:50:07;6.60;;;4.95;;
8632;SDS011;4354;49.832;10.746;2024-02-15T09:52:40;5.80;;;4.40;;
8632;SDS011;4354;49.832;10.746;2024-02-15T09:55:20;5.43;;;4.28;;
8632;SDS011;4354;49.832;10.746;2024-02-15T09:57:49;6.27;;;4.10;;
8632;SDS011;4354;49.832;10.746;2024-02-15T10:00:17;6.25;;;4.10;;
8632;SDS011;4354;49.832;10.746;2024-02-15T10:02:46;6.13;;;4.87;;
8632;SDS011;4354;49.832;10.746;2024-02-15T10:05:14;5.50;;;3.92;;
8632;SDS011;4354;49.832;10.746;2024-02-15T10:07:41;6.47;;;3.95;;
8632;SDS011;4354;49.832;10.746;2024-02-15T10:10:22;5.40;;;4.03;;
8632;SDS011;4354;49.832;10.746;2024-02-15T10:12:55;4.03;;;3.63;;
8632;SDS011;4354;49.832;10.746;2024-02-15T10:15:35;4.88;;;3.50;;
8632;SDS011;4354;49.832;10.746;2024-02-15T10:18:04;5.30;;;3.58;;
8632;SDS011;4354;49.832;10.746;2024-02-15T10:20:40;7.13;;;3.63;;
8632;SDS011;4354;49.832;10.746;2024-02-15T10:23:11;5.10;;;4.20;;
8632;SDS011;4354;49.832;10.746;2024-02-15T10:25:40;5.90;;;3.50;;
8632;SDS011;4354;49.832;10.746;2024-02-15T10:28:08;5.18;;;3.75;;
8632;SDS011;4354;49.832;10.746;2024-02-15T10:30:39;3.92;;;3.40;;
8632;SDS011;4354;49.832;10.746;2024-02-15T10:33:28;5.18;;;3.90;;
8632;SDS011;4354;49.832;10.746;2024-02-15T10:36:06;6.35;;;3.58;;
8632;SDS011;4354;49.832;10.746;2024-02-15T10:38:37;6.65;;;3.78;;
8632;SDS011;4354;49.832;10.746;2024-02-15T10:41:05;5.78;;;3.40;;
8632;SDS011;4354;49.832;10.746;2024-02-15T10:43:34;4.07;;;3.47;;
8632;SDS011;4354;49.832;10.746;2024-02-15T10:46:04;5.07;;;3.40;;
8632;SDS011;4354;49.832;10.746;2024-02-15T10:48:36;4.32;;;3.80;;
8632;SDS011;4354;49.832;10.746;2024-02-15T10:51:06;3.50;;;3.10;;
8632;SDS011;4354;49.832;10.746;2024-02-15T10:53:36;4.90;;;3.70;;
8632;SDS011;4354;49.832;10.746;2024-02-15T10:56:12;7.80;;;3.50;;
8632;SDS011;4354;49.832;10.746;2024-02-15T10:58:56;6.57;;;3.40;;
8632;SDS011;4354;49.832;10.746;2024-02-15T11:01:34;3.95;;;3.13;;
8632;SDS011;4354;49.832;10.746;2024-02-15T11:04:08;5.07;;;3.22;;
8632;SDS011;4354;49.832;10.746;2024-02-15T11:06:38;4.25;;;3.25;;
8632;SDS011;4354;49.832;10.746;2024-02-15T11:09:08;4.53;;;3.40;;
8632;SDS011;4354;49.832;10.746;2024-02-15T11:11:37;6.38;;;3.80;;
8632;SDS011;4354;49.832;10.746;2024-02-15T11:16:51;5.47;;;3.13;;
8632;SDS011;4354;49.832;10.746;2024-02-15T11:22:11;3.35;;;2.78;;
8632;SDS011;4354;49.832;10.746;2024-02-15T11:27:23;6.28;;;3.20;;
8632;SDS011;4354;49.832;10.746;2024-02-15T11:32:34;6.70;;;3.80;;
8632;SDS011;4354;49.832;10.746;2024-02-15T12:02:01;10.63;;;7.05;;
8632;SDS011;4354;49.832;10.746;2024-02-15T12:04:48;7.10;;;4.72;;
8632;SDS011;4354;49.832;10.746;2024-02-15T12:07:34;6.65;;;3.90;;
8632;SDS011;4354;49.832;10.746;2024-02-15T12:10:19;4.50;;;3.13;;
8632;SDS011;4354;49.832;10.746;2024-02-15T12:13:04;3.55;;;2.90;;
8632;SDS011;4354;49.832;10.746;2024-02-15T12:15:59;4.70;;;2.72;;
8632;SDS011;4354;49.832;10.746;2024-02-15T12:18:45;5.03;;;2.55;;
8632;SDS011;4354;49.832;10.746;2024-02-15T12:21:19;6.32;;;2.92;;
8632;SDS011;4354;49.832;10.746;2024-02-15T12:23:49;6.82;;;3.30;;
8632;SDS011;4354;49.832;10.746;2024-02-15T12:26:19;3.67;;;2.80;;
8632;SDS011;4354;49.832;10.746;2024-02-15T12:28:50;4.28;;;2.70;;
8632;SDS011;4354;49.832;10.746;2024-02-15T12:31:18;4.13;;;2.50;;
8632;SDS011;4354;49.832;10.746;2024-02-15T12:33:45;5.28;;;2.70;;
8632;SDS011;4354;49.832;10.746;2024-02-15T12:36:13;4.07;;;3.05;;
8632;SDS011;4354;49.832;10.746;2024-02-15T12:38:40;6.65;;;2.75;;
8632;SDS011;4354;49.832;10.746;2024-02-15T12:41:21;3.13;;;2.45;;
8632;SDS011;4354;49.832;10.746;2024-02-15T12:43:54;8.48;;;2.47;;
8632;SDS011;4354;49.832;10.746;2024-02-15T12:46:23;5.45;;;2.90;;
8632;SDS011;4354;49.832;10.746;2024-02-15T12:48:49;4.65;;;2.17;;
8632;SDS011;4354;49.832;10.746;2024-02-15T12:51:19;4.28;;;2.50;;
8632;SDS011;4354;49.832;10.746;2024-02-15T12:53:47;35.88;;;32.05;;
8632;SDS011;4354;49.832;10.746;2024-02-15T12:56:19;5.38;;;4.20;;
8632;SDS011;4354;49.832;10.746;2024-02-15T12:58:47;5.03;;;1.98;;
8632;SDS011;4354;49.832;10.746;2024-02-15T13:01:14;3.80;;;1.92;;
8632;SDS011;4354;49.832;10.746;2024-02-15T13:03:41;3.70;;;2.13;;
8632;SDS011;4354;49.832;10.746;2024-02-15T13:06:07;4.35;;;2.13;;
8632;SDS011;4354;49.832;10.746;2024-02-15T13:08:34;5.57;;;1.77;;
8632;SDS011;4354;49.832;10.746;2024-02-15T13:11:02;3.45;;;1.77;;
8632;SDS011;4354;49.832;10.746;2024-02-15T13:13:29;3.75;;;2.20;;
8632;SDS011;4354;49.832;10.746;2024-02-15T13:15:56;3.80;;;2.10;;
8632;SDS011;4354;49.832;10.746;2024-02-15T13:18:24;4.70;;;2.10;;
8632;SDS011;4354;49.832;10.746;2024-02-15T13:20:54;4.82;;;2.33;;
8632;SDS011;4354;49.832;10.746;2024-02-15T13:23:22;3.05;;;1.77;;
8632;SDS011;4354;49.832;10.746;2024-02-15T13:25:51;3.05;;;1.85;;
8632;SDS011;4354;49.832;10.746;2024-02-15T13:28:18;3.85;;;2.20;;
8632;SDS011;4354;49.832;10.746;2024-02-15T13:30:46;3.35;;;1.90;;
8632;SDS011;4354;49.832;10.746;2024-02-15T13:33:13;2.65;;;1.77;;
8632;SDS011;4354;49.832;10.746;2024-02-15T13:35:40;3.85;;;2.65;;
8632;SDS011;4354;49.832;10.746;2024-02-15T13:38:08;3.85;;;2.13;;
8632;SDS011;4354;49.832;10.746;2024-02-15T13:40:41;2.72;;;2.00;;
8632;SDS011;4354;49.832;10.746;2024-02-15T13:43:10;4.60;;;1.85;;
8632;SDS011;4354;49.832;10.746;2024-02-15T13:45:40;7.70;;;2.08;;
8632;SDS011;4354;49.832;10.746;2024-02-15T13:48:08;3.13;;;1.83;;
8632;SDS011;4354;49.832;10.746;2024-02-15T13:50:36;4.78;;;2.33;;
8632;SDS011;4354;49.832;10.746;2024-02-15T13:53:05;2.33;;;1.92;;
8632;SDS011;4354;49.832;10.746;2024-02-15T13:55:33;3.00;;;1.90;;
8632;SDS011;4354;49.832;10.746;2024-02-15T13:58:00;5.03;;;1.92;;
8632;SDS011;4354;49.832;10.746;2024-02-15T14:00:27;3.22;;;1.83;;
8632;SDS011;4354;49.832;10.746;2024-02-15T14:03:01;4.82;;;1.90;;
8632;SDS011;4354;49.832;10.746;2024-02-15T14:05:29;3.25;;;1.63;;
8632;SDS011;4354;49.832;10.746;2024-02-15T14:07:57;4.80;;;1.85;;
8632;SDS011;4354;49.832;10.746;2024-02-15T14:10:37;6.07;;;2.30;;
8632;SDS011;4354;49.832;10.746;2024-02-15T14:13:04;6.57;;;1.70;;
8632;SDS011;4354;49.832;10.746;2024-02-15T14:15:32;3.13;;;1.50;;
8632;SDS011;4354;49.832;10.746;2024-02-15T14:18:08;2.28;;;1.30;;
8632;SDS011;4354;49.832;10.746;2024-02-15T14:20:45;3.22;;;1.70;;
8632;SDS011;4354;49.832;10.746;2024-02-15T14:23:16;5.07;;;2.00;;
8632;SDS011;4354;49.832;10.746;2024-02-15T14:25:43;4.03;;;2.83;;
8632;SDS011;4354;49.832;10.746;2024-02-15T14:28:11;3.90;;;2.00;;
8632;SDS011;4354;49.832;10.746;2024-02-15T14:30:39;5.10;;;2.22;;
8632;SDS011;4354;49.832;10.746;2024-02-15T14:33:26;2.05;;;1.42;;
8632;SDS011;4354;49.832;10.746;2024-02-15T14:35:55;1.90;;;1.17;;
8632;SDS011;4354;49.832;10.746;2024-02-15T14:38:22;4.57;;;1.52;;
8632;SDS011;4354;49.832;10.746;2024-02-15T14:40:50;4.43;;;1.40;;
8632;SDS011;4354;49.832;10.746;2024-02-15T14:43:20;1.98;;;1.50;;
8632;SDS011;4354;49.832;10.746;2024-02-15T14:45:48;3.42;;;1.50;;
8632;SDS011;4354;49.832;10.746;2024-02-15T14:48:16;3.17;;;1.27;;
8632;SDS011;4354;49.832;10.746;2024-02-15T14:50:45;1.85;;;1.38;;
8632;SDS011;4354;49.832;10.746;2024-02-15T14:53:12;3.05;;;1.50;;
8632;SDS011;4354;49.832;10.746;2024-02-15T14:55:42;7.68;;;1.77;;
8632;SDS011;4354;49.832;10.746;2024-02-15T14:58:12;1.35;;;0.90;;
8632;SDS011;4354;49.832;10.746;2024-02-15T15:00:40;4.50;;;1.60;;
8632;SDS011;4354;49.832;10.746;2024-02-15T15:03:11;5.22;;;1.70;;
8632;SDS011;4354;49.832;10.746;2024-02-15T15:05:42;2.28;;;1.52;;
8632;SDS011;4354;49.832;10.746;2024-02-15T15:08:28;4.63;;;1.48;;
8632;SDS011;4354;49.832;10.746;2024-02-15T15:11:14;4.70;;;2.30;;
8632;SDS011;4354;49.832;10.746;2024-02-15T15:13:59;12.07;;;9.40;;
8632;SDS011;4354;49.832;10.746;2024-02-15T15:16:26;7.20;;;3.83;;
8632;SDS011;4354;49.832;10.746;2024-02-15T15:18:54;6.68;;;3.35;;
8632;SDS011;4354;49.832;10.746;2024-02-15T15:21:22;5.97;;;2.70;;
8632;SDS011;4354;49.832;10.746;2024-02-15T15:23:50;5.97;;;2.20;;
8632;SDS011;4354;49.832;10.746;2024-02-15T15:26:19;5.72;;;3.10;;
8632;SDS011;4354;49.832;10.746;2024-02-15T15:28:47;5.72;;;3.65;;
8632;SDS011;4354;49.832;10.746;2024-02-15T15:31:14;4.70;;;2.80;;
8632;SDS011;4354;49.832;10.746;2024-02-15T15:33:42;4.38;;;2.53;;
8632;SDS011;4354;49.832;10.746;2024-02-15T15:36:09;4.45;;;3.03;;
8632;SDS011;4354;49.832;10.746;2024-02-15T15:38:39;5.95;;;3.25;;
8632;SDS011;4354;49.832;10.746;2024-02-15T15:41:09;4.53;;;2.90;;
8632;SDS011;4354;49.832;10.746;2024-02-15T15:43:36;7.22;;;3.83;;